sensor_id;sensor_type;location;lat;lon;timestamp;P1;durP1;ratioP1;P2;durP2;ratioP2
10910;SDS011;5508;49.150;11.030;2023-04-07T00:00:09;7.70;;;5.37;;
10910;SDS011;5508;49.150;11.030;2023-04-07T00:03:11;9.90;;;6.23;;
10910;SDS011;5508;49.150;11.030;2023-04-07T00:06:12;10.80;;;7.63;;
10910;SDS011;5508;49.150;11.030;2023-04-07T00:09:12;11.97;;;7.77;;
10910;SDS011;5508;49.150;11.030;2023-04-07T00:12:13;10.43;;;7.07;;
10910;SDS011;5508;49.150;11.030;2023-04-07T00:15:13;8.23;;;6.87;;
10910;SDS011;5508;49.150;11.030;2023-04-07T00:18:14;11.53;;;8.43;;
10910;SDS011;5508;49.150;11.030;2023-04-07T00:21:14;10.17;;;8.40;;
10910;SDS011;5508;49.150;11.030;2023-04-07T00:24:15;11.33;;;8.60;;
10910;SDS011;5508;49.150;11.030;2023-04-07T00:27:16;12.07;;;9.60;;
10910;SDS011;5508;49.150;11.030;2023-04-07T00:30:16;13.13;;;9.57;;
10910;SDS011;5508;49.150;11.030;2023-04-07T00:33:17;10.93;;;9.03;;
10910;SDS011;5508;49.150;11.030;2023-04-07T00:36:17;12.17;;;9.53;;
10910;SDS011;5508;49.150;11.030;2023-04-07T00:39:18;9.73;;;8.50;;
10910;SDS011;5508;49.150;11.030;2023-04-07T00:42:19;10.30;;;7.93;;
10910;SDS011;5508;49.150;11.030;2023-04-07T00:45:20;9.20;;;7.07;;
10910;SDS011;5508;49.150;11.030;2023-04-07T00:48:20;9.47;;;7.43;;
10910;SDS011;5508;49.150;11.030;2023-04-07T00:51:21;10.97;;;7.07;;
10910;SDS011;5508;49.150;11.030;2023-04-07T00:54:22;11.20;;;6.93;;
10910;SDS011;5508;49.150;11.030;2023-04-07T00:57:23;12.53;;;7.90;;
10910;SDS011;5508;49.150;11.030;2023-04-07T01:00:24;11.30;;;8.20;;
10910;SDS011;5508;49.150;11.030;2023-04-07T01:03:30;11.90;;;8.80;;
10910;SDS011;5508;49.150;11.030;2023-04-07T01:06:35;10.17;;;8.73;;
10910;SDS011;5508;49.150;11.030;2023-04-07T01:09:46;10.87;;;8.07;;
10910;SDS011;5508;49.150;11.030;2023-04-07T01:12:56;10.73;;;8.70;;
10910;SDS011;5508;49.150;11.030;2023-04-07T01:16:06;9.90;;;8.90;;
10910;SDS011;5508;49.150;11.030;2023-04-07T01:22:31;10.73;;;8.27;;
10910;SDS011;5508;49.150;11.030;2023-04-07T01:25:52;11.60;;;8.80;;
10910;SDS011;5508;49.150;11.030;2023-04-07T01:29:06;9.00;;;7.43;;
10910;SDS011;5508;49.150;11.030;2023-04-07T01:32:15;10.17;;;8.53;;
10910;SDS011;5508;49.150;11.030;2023-04-07T01:35:19;8.40;;;7.10;;
10910;SDS011;5508;49.150;11.030;2023-04-07T01:38:21;12.20;;;7.80;;
10910;SDS011;5508;49.150;11.030;2023-04-07T01:41:23;13.43;;;10.70;;
10910;SDS011;5508;49.150;11.030;2023-04-07T01:44:24;15.70;;;11.70;;
10910;SDS011;5508;49.150;11.030;2023-04-07T01:47:27;13.80;;;10.43;;
10910;SDS011;5508;49.150;11.030;2023-04-07T01:50:29;12.70;;;9.40;;
10910;SDS011;5508;49.150;11.030;2023-04-07T01:53:30;11.87;;;8.97;;
10910;SDS011;5508;49.150;11.030;2023-04-07T01:56:32;11.37;;;9.47;;
10910;SDS011;5508;49.150;11.030;2023-04-07T01:59:33;11.90;;;9.33;;
10910;SDS011;5508;49.150;11.030;2023-04-07T02:02:34;12.40;;;8.87;;
10910;SDS011;5508;49.150;11.030;2023-04-07T02:05:39;13.67;;;9.57;;
10910;SDS011;5508;49.150;11.030;2023-04-07T02:08:41;41.27;;;22.53;;
10910;SDS011;5508;49.150;11.030;2023-04-07T02:11:46;36.63;;;22.30;;
10910;SDS011;5508;49.150;11.030;2023-04-07T02:14:50;38.10;;;23.00;;
10910;SDS011;5508;49.150;11.030;2023-04-07T02:17:51;22.90;;;15.90;;
10910;SDS011;5508;49.150;11.030;2023-04-07T02:20:53;14.20;;;8.37;;
10910;SDS011;5508;49.150;11.030;2023-04-07T02:23:55;15.03;;;10.20;;
10910;SDS011;5508;49.150;11.030;2023-04-07T02:26:55;18.77;;;13.70;;
10910;SDS011;5508;49.150;11.030;2023-04-07T02:29:56;15.23;;;11.97;;
10910;SDS011;5508;49.150;11.030;2023-04-07T02:32:57;11.73;;;9.90;;
10910;SDS011;5508;49.150;11.030;2023-04-07T02:35:57;13.03;;;8.90;;
10910;SDS011;5508;49.150;11.030;2023-04-07T02:38:58;9.17;;;7.40;;
10910;SDS011;5508;49.150;11.030;2023-04-07T02:41:58;9.13;;;7.80;;
10910;SDS011;5508;49.150;11.030;2023-04-07T02:44:59;12.67;;;8.43;;
10910;SDS011;5508;49.150;11.030;2023-04-07T02:47:59;11.23;;;8.60;;
10910;SDS011;5508;49.150;11.030;2023-04-07T02:51:00;13.20;;;8.17;;
10910;SDS011;5508;49.150;11.030;2023-04-07T02:54:00;13.97;;;8.40;;
10910;SDS011;5508;49.150;11.030;2023-04-07T02:57:01;10.70;;;8.00;;
10910;SDS011;5508;49.150;11.030;2023-04-07T03:00:02;8.50;;;7.00;;
10910;SDS011;5508;49.150;11.030;2023-04-07T03:03:03;13.53;;;8.73;;
10910;SDS011;5508;49.150;11.030;2023-04-07T03:06:03;16.50;;;8.60;;
10910;SDS011;5508;49.150;11.030;2023-04-07T03:09:05;10.00;;;8.37;;
10910;SDS011;5508;49.150;11.030;2023-04-07T03:12:05;11.60;;;8.23;;
10910;SDS011;5508;49.150;11.030;2023-04-07T03:15:06;10.20;;;8.40;;
10910;SDS011;5508;49.150;11.030;2023-04-07T03:18:07;9.70;;;8.00;;
10910;SDS011;5508;49.150;11.030;2023-04-07T03:21:07;10.20;;;8.53;;
10910;SDS011;5508;49.150;11.030;2023-04-07T03:24:08;10.47;;;8.13;;
10910;SDS011;5508;49.150;11.030;2023-04-07T03:27:08;11.83;;;8.87;;
10910;SDS011;5508;49.150;11.030;2023-04-07T03:30:09;10.93;;;8.57;;
10910;SDS011;5508;49.150;11.030;2023-04-07T03:33:10;13.03;;;9.37;;
10910;SDS011;5508;49.150;11.030;2023-04-07T03:36:11;12.13;;;8.93;;
10910;SDS011;5508;49.150;11.030;2023-04-07T03:39:12;16.17;;;12.77;;
10910;SDS011;5508;49.150;11.030;2023-04-07T03:42:13;18.03;;;13.03;;
10910;SDS011;5508;49.150;11.030;2023-04-07T03:45:13;12.23;;;9.60;;
10910;SDS011;5508;49.150;11.030;2023-04-07T03:48:15;12.63;;;9.90;;
10910;SDS011;5508;49.150;11.030;2023-04-07T03:51:16;17.90;;;10.33;;
10910;SDS011;5508;49.150;11.030;2023-04-07T03:54:16;12.40;;;8.70;;
10910;SDS011;5508;49.150;11.030;2023-04-07T03:57:17;13.17;;;10.03;;
10910;SDS011;5508;49.150;11.030;2023-04-07T04:00:17;17.00;;;12.07;;
10910;SDS011;5508;49.150;11.030;2023-04-07T04:03:18;13.10;;;11.10;;
10910;SDS011;5508;49.150;11.030;2023-04-07T04:06:18;11.53;;;9.43;;
10910;SDS011;5508;49.150;11.030;2023-04-07T04:09:19;11.33;;;8.97;;
10910;SDS011;5508;49.150;11.030;2023-04-07T04:12:19;11.47;;;8.60;;
10910;SDS011;5508;49.150;11.030;2023-04-07T04:15:20;10.23;;;8.43;;
10910;SDS011;5508;49.150;11.030;2023-04-07T04:18:20;10.37;;;8.80;;
10910;SDS011;5508;49.150;11.030;2023-04-07T04:21:21;12.80;;;9.13;;
10910;SDS011;5508;49.150;11.030;2023-04-07T04:24:22;10.57;;;8.00;;
10910;SDS011;5508;49.150;11.030;2023-04-07T04:27:22;12.20;;;9.07;;
10910;SDS011;5508;49.150;11.030;2023-04-07T04:30:23;11.80;;;8.90;;
10910;SDS011;5508;49.150;11.030;2023-04-07T04:33:23;11.50;;;9.17;;
10910;SDS011;5508;49.150;11.030;2023-04-07T04:36:24;9.87;;;8.60;;
10910;SDS011;5508;49.150;11.030;2023-04-07T04:39:25;10.97;;;8.67;;
10910;SDS011;5508;49.150;11.030;2023-04-07T04:42:25;11.20;;;9.10;;
10910;SDS011;5508;49.150;11.030;2023-04-07T04:45:27;11.30;;;8.70;;
10910;SDS011;5508;49.150;11.030;2023-04-07T04:48:27;11.67;;;9.20;;
10910;SDS011;5508;49.150;11.030;2023-04-07T04:51:28;9.77;;;8.47;;
10910;SDS011;5508;49.150;11.030;2023-04-07T04:54:29;10.27;;;7.57;;
10910;SDS011;5508;49.150;11.030;2023-04-07T04:57:29;12.50;;;8.20;;
10910;SDS011;5508;49.150;11.030;2023-04-07T05:00:30;10.97;;;8.17;;
10910;SDS011;5508;49.150;11.030;2023-04-07T05:03:30;12.40;;;7.80;;
10910;SDS011;5508;49.150;11.030;2023-04-07T05:06:31;9.83;;;7.80;;
10910;SDS011;5508;49.150;11.030;2023-04-07T05:09:32;9.97;;;7.37;;
10910;SDS011;5508;49.150;11.030;2023-04-07T05:12:32;9.73;;;7.70;;
10910;SDS011;5508;49.150;11.030;2023-04-07T05:15:33;9.90;;;8.10;;
10910;SDS011;5508;49.150;11.030;2023-04-07T05:18:33;18.47;;;14.87;;
10910;SDS011;5508;49.150;11.030;2023-04-07T05:21:34;20.53;;;15.93;;
10910;SDS011;5508;49.150;11.030;2023-04-07T05:24:34;19.90;;;16.17;;
10910;SDS011;5508;49.150;11.030;2023-04-07T05:27:35;13.30;;;10.50;;
10910;SDS011;5508;49.150;11.030;2023-04-07T05:30:36;12.50;;;9.30;;
10910;SDS011;5508;49.150;11.030;2023-04-07T05:33:36;12.30;;;8.97;;
10910;SDS011;5508;49.150;11.030;2023-04-07T05:36:37;11.10;;;9.20;;
10910;SDS011;5508;49.150;11.030;2023-04-07T05:39:37;11.33;;;8.47;;
10910;SDS011;5508;49.150;11.030;2023-04-07T05:42:38;11.43;;;8.13;;
10910;SDS011;5508;49.150;11.030;2023-04-07T05:45:38;10.63;;;8.53;;
10910;SDS011;5508;49.150;11.030;2023-04-07T05:48:39;9.47;;;7.67;;
10910;SDS011;5508;49.150;11.030;2023-04-07T05:51:39;12.63;;;8.23;;
10910;SDS011;5508;49.150;11.030;2023-04-07T05:54:40;10.37;;;7.97;;
10910;SDS011;5508;49.150;11.030;2023-04-07T05:57:41;8.93;;;8.03;;
10910;SDS011;5508;49.150;11.030;2023-04-07T06:00:41;11.63;;;8.00;;
10910;SDS011;5508;49.150;11.030;2023-04-07T06:03:42;9.60;;;7.90;;
10910;SDS011;5508;49.150;11.030;2023-04-07T06:06:42;11.77;;;8.90;;
10910;SDS011;5508;49.150;11.030;2023-04-07T06:09:43;16.03;;;13.30;;
10910;SDS011;5508;49.150;11.030;2023-04-07T06:12:43;20.87;;;15.87;;
10910;SDS011;5508;49.150;11.030;2023-04-07T06:15:44;16.97;;;12.63;;
10910;SDS011;5508;49.150;11.030;2023-04-07T06:18:45;11.33;;;9.63;;
10910;SDS011;5508;49.150;11.030;2023-04-07T06:21:46;12.13;;;9.60;;
10910;SDS011;5508;49.150;11.030;2023-04-07T06:24:46;11.70;;;10.17;;
10910;SDS011;5508;49.150;11.030;2023-04-07T06:27:47;10.67;;;9.43;;
10910;SDS011;5508;49.150;11.030;2023-04-07T06:30:47;11.30;;;9.30;;
10910;SDS011;5508;49.150;11.030;2023-04-07T06:33:48;12.63;;;10.20;;
10910;SDS011;5508;49.150;11.030;2023-04-07T06:36:48;16.37;;;14.23;;
10910;SDS011;5508;49.150;11.030;2023-04-07T06:39:49;12.93;;;11.63;;
10910;SDS011;5508;49.150;11.030;2023-04-07T06:42:50;14.73;;;12.37;;
10910;SDS011;5508;49.150;11.030;2023-04-07T06:45:50;17.27;;;13.40;;
10910;SDS011;5508;49.150;11.030;2023-04-07T06:48:51;17.17;;;15.37;;
10910;SDS011;5508;49.150;11.030;2023-04-07T06:51:51;16.13;;;14.43;;
10910;SDS011;5508;49.150;11.030;2023-04-07T06:54:52;13.80;;;12.10;;
10910;SDS011;5508;49.150;11.030;2023-04-07T06:57:52;16.20;;;13.23;;
10910;SDS011;5508;49.150;11.030;2023-04-07T07:00:53;19.20;;;15.90;;
10910;SDS011;5508;49.150;11.030;2023-04-07T07:03:53;25.27;;;19.30;;
10910;SDS011;5508;49.150;11.030;2023-04-07T07:06:54;23.73;;;17.43;;
10910;SDS011;5508;49.150;11.030;2023-04-07T07:09:55;17.10;;;15.20;;
10910;SDS011;5508;49.150;11.030;2023-04-07T07:12:55;18.10;;;14.63;;
10910;SDS011;5508;49.150;11.030;2023-04-07T07:15:56;15.40;;;13.73;;
10910;SDS011;5508;49.150;11.030;2023-04-07T07:18:56;14.33;;;12.43;;
10910;SDS011;5508;49.150;11.030;2023-04-07T07:21:57;17.33;;;13.90;;
10910;SDS011;5508;49.150;11.030;2023-04-07T07:24:57;16.10;;;12.33;;
10910;SDS011;5508;49.150;11.030;2023-04-07T07:27:58;18.03;;;14.40;;
10910;SDS011;5508;49.150;11.030;2023-04-07T07:30:58;21.90;;;14.90;;
10910;SDS011;5508;49.150;11.030;2023-04-07T07:33:59;18.73;;;16.10;;
10910;SDS011;5508;49.150;11.030;2023-04-07T07:37:00;15.40;;;13.53;;
10910;SDS011;5508;49.150;11.030;2023-04-07T07:40:00;20.73;;;15.67;;
10910;SDS011;5508;49.150;11.030;2023-04-07T07:43:01;22.03;;;17.17;;
10910;SDS011;5508;49.150;11.030;2023-04-07T07:46:02;20.00;;;17.90;;
10910;SDS011;5508;49.150;11.030;2023-04-07T07:49:03;18.20;;;14.80;;
10910;SDS011;5508;49.150;11.030;2023-04-07T07:52:04;15.50;;;13.83;;
10910;SDS011;5508;49.150;11.030;2023-04-07T07:55:05;15.67;;;13.17;;
10910;SDS011;5508;49.150;11.030;2023-04-07T07:58:06;16.07;;;13.57;;
10910;SDS011;5508;49.150;11.030;2023-04-07T08:01:06;13.90;;;12.00;;
10910;SDS011;5508;49.150;11.030;2023-04-07T08:04:07;14.00;;;12.40;;
10910;SDS011;5508;49.150;11.030;2023-04-07T08:07:08;12.40;;;11.10;;
10910;SDS011;5508;49.150;11.030;2023-04-07T08:10:08;15.40;;;11.70;;
10910;SDS011;5508;49.150;11.030;2023-04-07T08:13:09;13.80;;;11.07;;
10910;SDS011;5508;49.150;11.030;2023-04-07T08:16:10;12.47;;;11.27;;
10910;SDS011;5508;49.150;11.030;2023-04-07T08:19:11;11.40;;;10.23;;
10910;SDS011;5508;49.150;11.030;2023-04-07T08:22:12;11.17;;;9.57;;
10910;SDS011;5508;49.150;11.030;2023-04-07T08:25:13;13.03;;;10.83;;
10910;SDS011;5508;49.150;11.030;2023-04-07T08:28:13;11.13;;;9.87;;
10910;SDS011;5508;49.150;11.030;2023-04-07T08:31:14;15.50;;;13.90;;
10910;SDS011;5508;49.150;11.030;2023-04-07T08:34:15;17.97;;;10.77;;
10910;SDS011;5508;49.150;11.030;2023-04-07T08:37:16;14.20;;;12.73;;
10910;SDS011;5508;49.150;11.030;2023-04-07T08:40:16;12.90;;;11.23;;
10910;SDS011;5508;49.150;11.030;2023-04-07T08:43:17;11.17;;;9.57;;
10910;SDS011;5508;49.150;11.030;2023-04-07T08:46:20;11.40;;;10.17;;
10910;SDS011;5508;49.150;11.030;2023-04-07T08:49:22;10.23;;;9.23;;
10910;SDS011;5508;49.150;11.030;2023-04-07T08:52:33;9.60;;;7.90;;
10910;SDS011;5508;49.150;11.030;2023-04-07T08:55:35;9.70;;;8.70;;
10910;SDS011;5508;49.150;11.030;2023-04-07T08:58:35;12.97;;;9.63;;
10910;SDS011;5508;49.150;11.030;2023-04-07T09:01:36;10.60;;;9.50;;
10910;SDS011;5508;49.150;11.030;2023-04-07T09:04:37;10.33;;;8.80;;
10910;SDS011;5508;49.150;11.030;2023-04-07T09:07:38;10.03;;;9.00;;
10910;SDS011;5508;49.150;11.030;2023-04-07T09:10:39;13.20;;;11.07;;
10910;SDS011;5508;49.150;11.030;2023-04-07T09:13:40;11.73;;;9.33;;
10910;SDS011;5508;49.150;11.030;2023-04-07T09:16:40;10.30;;;9.20;;
10910;SDS011;5508;49.150;11.030;2023-04-07T09:19:41;12.73;;;9.57;;
10910;SDS011;5508;49.150;11.030;2023-04-07T09:22:42;11.43;;;9.57;;
10910;SDS011;5508;49.150;11.030;2023-04-07T09:25:44;11.73;;;9.80;;
10910;SDS011;5508;49.150;11.030;2023-04-07T09:28:47;10.50;;;9.40;;
10910;SDS011;5508;49.150;11.030;2023-04-07T09:31:49;14.20;;;8.50;;
10910;SDS011;5508;49.150;11.030;2023-04-07T09:34:57;11.90;;;10.77;;
10910;SDS011;5508;49.150;11.030;2023-04-07T09:38:03;11.00;;;9.90;;
10910;SDS011;5508;49.150;11.030;2023-04-07T09:41:11;9.87;;;8.87;;
10910;SDS011;5508;49.150;11.030;2023-04-07T09:44:14;9.20;;;8.17;;
10910;SDS011;5508;49.150;11.030;2023-04-07T09:47:14;9.87;;;8.60;;
10910;SDS011;5508;49.150;11.030;2023-04-07T09:50:29;10.80;;;8.63;;
10910;SDS011;5508;49.150;11.030;2023-04-07T09:56:42;9.23;;;8.10;;
10910;SDS011;5508;49.150;11.030;2023-04-07T09:59:44;9.37;;;8.43;;
10910;SDS011;5508;49.150;11.030;2023-04-07T10:02:45;9.50;;;7.67;;
10910;SDS011;5508;49.150;11.030;2023-04-07T10:05:46;9.27;;;7.13;;
10910;SDS011;5508;49.150;11.030;2023-04-07T10:08:48;8.17;;;7.37;;
10910;SDS011;5508;49.150;11.030;2023-04-07T10:11:49;8.53;;;7.70;;
10910;SDS011;5508;49.150;11.030;2023-04-07T10:14:51;8.53;;;7.73;;
10910;SDS011;5508;49.150;11.030;2023-04-07T10:17:53;7.47;;;6.77;;
10910;SDS011;5508;49.150;11.030;2023-04-07T10:20:56;7.90;;;7.10;;
10910;SDS011;5508;49.150;11.030;2023-04-07T10:27:42;8.20;;;7.07;;
10910;SDS011;5508;49.150;11.030;2023-04-07T10:30:49;7.10;;;6.40;;
10910;SDS011;5508;49.150;11.030;2023-04-07T10:33:51;8.30;;;7.50;;
10910;SDS011;5508;49.150;11.030;2023-04-07T10:37:11;7.47;;;6.77;;
10910;SDS011;5508;49.150;11.030;2023-04-07T10:40:34;7.07;;;6.07;;
10910;SDS011;5508;49.150;11.030;2023-04-07T10:43:38;7.43;;;6.63;;
10910;SDS011;5508;49.150;11.030;2023-04-07T10:53:19;7.73;;;7.03;;
10910;SDS011;5508;49.150;11.030;2023-04-07T10:56:20;7.50;;;6.80;;
10910;SDS011;5508;49.150;11.030;2023-04-07T10:59:21;7.20;;;6.57;;
10910;SDS011;5508;49.150;11.030;2023-04-07T11:05:26;8.50;;;7.60;;
10910;SDS011;5508;49.150;11.030;2023-04-07T11:08:34;7.43;;;6.73;;
10910;SDS011;5508;49.150;11.030;2023-04-07T11:11:36;8.90;;;7.93;;
10910;SDS011;5508;49.150;11.030;2023-04-07T11:14:38;7.43;;;6.70;;
10910;SDS011;5508;49.150;11.030;2023-04-07T11:17:40;7.73;;;6.90;;
10910;SDS011;5508;49.150;11.030;2023-04-07T11:23:42;8.63;;;6.03;;
10910;SDS011;5508;49.150;11.030;2023-04-07T11:26:44;7.63;;;6.83;;
10910;SDS011;5508;49.150;11.030;2023-04-07T11:29:45;7.20;;;6.50;;
10910;SDS011;5508;49.150;11.030;2023-04-07T11:32:47;6.90;;;6.27;;
10910;SDS011;5508;49.150;11.030;2023-04-07T11:35:49;6.80;;;6.17;;
10910;SDS011;5508;49.150;11.030;2023-04-07T11:38:51;7.70;;;6.93;;
10910;SDS011;5508;49.150;11.030;2023-04-07T11:41:51;7.40;;;6.50;;
10910;SDS011;5508;49.150;11.030;2023-04-07T11:44:52;7.20;;;6.50;;
10910;SDS011;5508;49.150;11.030;2023-04-07T11:47:52;7.87;;;7.07;;
10910;SDS011;5508;49.150;11.030;2023-04-07T11:50:53;7.43;;;6.00;;
10910;SDS011;5508;49.150;11.030;2023-04-07T11:53:54;6.53;;;5.77;;
10910;SDS011;5508;49.150;11.030;2023-04-07T11:56:55;7.10;;;6.13;;
10910;SDS011;5508;49.150;11.030;2023-04-07T12:00:06;7.13;;;6.43;;
10910;SDS011;5508;49.150;11.030;2023-04-07T12:03:08;6.97;;;6.37;;
10910;SDS011;5508;49.150;11.030;2023-04-07T12:06:12;6.53;;;5.80;;
10910;SDS011;5508;49.150;11.030;2023-04-07T12:09:27;10.67;;;8.17;;
10910;SDS011;5508;49.150;11.030;2023-04-07T12:12:34;7.30;;;6.60;;
10910;SDS011;5508;49.150;11.030;2023-04-07T12:15:35;7.10;;;6.30;;
10910;SDS011;5508;49.150;11.030;2023-04-07T12:18:36;7.63;;;6.93;;
10910;SDS011;5508;49.150;11.030;2023-04-07T12:21:37;6.93;;;6.30;;
10910;SDS011;5508;49.150;11.030;2023-04-07T12:24:37;6.93;;;6.23;;
10910;SDS011;5508;49.150;11.030;2023-04-07T12:27:47;8.23;;;7.07;;
10910;SDS011;5508;49.150;11.030;2023-04-07T12:30:47;7.27;;;6.57;;
10910;SDS011;5508;49.150;11.030;2023-04-07T12:33:48;6.53;;;5.93;;
10910;SDS011;5508;49.150;11.030;2023-04-07T12:36:48;6.07;;;5.47;;
10910;SDS011;5508;49.150;11.030;2023-04-07T12:39:49;8.00;;;7.20;;
10910;SDS011;5508;49.150;11.030;2023-04-07T12:42:49;6.70;;;6.07;;
10910;SDS011;5508;49.150;11.030;2023-04-07T12:45:50;8.47;;;7.67;;
10910;SDS011;5508;49.150;11.030;2023-04-07T12:48:52;8.23;;;6.40;;
10910;SDS011;5508;49.150;11.030;2023-04-07T12:51:52;29.33;;;23.40;;
10910;SDS011;5508;49.150;11.030;2023-04-07T12:54:53;17.23;;;15.53;;
10910;SDS011;5508;49.150;11.030;2023-04-07T12:57:53;7.93;;;6.00;;
10910;SDS011;5508;49.150;11.030;2023-04-07T13:00:54;7.23;;;6.53;;
10910;SDS011;5508;49.150;11.030;2023-04-07T13:03:55;9.10;;;8.00;;
10910;SDS011;5508;49.150;11.030;2023-04-07T13:06:56;8.20;;;7.40;;
10910;SDS011;5508;49.150;11.030;2023-04-07T13:09:56;6.67;;;6.03;;
10910;SDS011;5508;49.150;11.030;2023-04-07T13:12:57;7.77;;;7.07;;
10910;SDS011;5508;49.150;11.030;2023-04-07T13:15:57;7.17;;;6.53;;
10910;SDS011;5508;49.150;11.030;2023-04-07T13:18:58;6.47;;;5.87;;
10910;SDS011;5508;49.150;11.030;2023-04-07T13:21:59;12.23;;;10.93;;
10910;SDS011;5508;49.150;11.030;2023-04-07T13:25:00;7.07;;;6.13;;
10910;SDS011;5508;49.150;11.030;2023-04-07T13:28:00;12.80;;;10.10;;
10910;SDS011;5508;49.150;11.030;2023-04-07T13:31:01;7.17;;;6.47;;
10910;SDS011;5508;49.150;11.030;2023-04-07T13:34:01;11.57;;;10.37;;
10910;SDS011;5508;49.150;11.030;2023-04-07T13:37:02;10.67;;;8.57;;
10910;SDS011;5508;49.150;11.030;2023-04-07T13:40:03;8.17;;;6.97;;
10910;SDS011;5508;49.150;11.030;2023-04-07T13:43:04;7.03;;;6.23;;
10910;SDS011;5508;49.150;11.030;2023-04-07T13:46:06;8.83;;;6.83;;
10910;SDS011;5508;49.150;11.030;2023-04-07T13:49:07;5.10;;;4.60;;
10910;SDS011;5508;49.150;11.030;2023-04-07T13:52:07;4.93;;;4.43;;
10910;SDS011;5508;49.150;11.030;2023-04-07T13:55:08;8.57;;;6.40;;
10910;SDS011;5508;49.150;11.030;2023-04-07T13:58:09;20.77;;;10.67;;
10910;SDS011;5508;49.150;11.030;2023-04-07T14:01:09;5.10;;;4.60;;
10910;SDS011;5508;49.150;11.030;2023-04-07T14:04:10;5.73;;;5.10;;
10910;SDS011;5508;49.150;11.030;2023-04-07T14:07:11;5.70;;;4.63;;
10910;SDS011;5508;49.150;11.030;2023-04-07T14:10:12;9.77;;;6.90;;
10910;SDS011;5508;49.150;11.030;2023-04-07T14:13:12;13.10;;;7.67;;
10910;SDS011;5508;49.150;11.030;2023-04-07T14:16:13;38.97;;;18.30;;
10910;SDS011;5508;49.150;11.030;2023-04-07T14:19:13;4.93;;;4.10;;
10910;SDS011;5508;49.150;11.030;2023-04-07T14:22:14;8.97;;;5.87;;
10910;SDS011;5508;49.150;11.030;2023-04-07T14:25:15;26.07;;;12.43;;
10910;SDS011;5508;49.150;11.030;2023-04-07T14:28:15;5.13;;;4.53;;
10910;SDS011;5508;49.150;11.030;2023-04-07T14:31:16;20.63;;;11.43;;
10910;SDS011;5508;49.150;11.030;2023-04-07T14:34:17;22.00;;;10.73;;
10910;SDS011;5508;49.150;11.030;2023-04-07T14:37:17;22.23;;;9.97;;
10910;SDS011;5508;49.150;11.030;2023-04-07T14:40:23;6.60;;;5.90;;
10910;SDS011;5508;49.150;11.030;2023-04-07T14:43:23;5.53;;;4.70;;
10910;SDS011;5508;49.150;11.030;2023-04-07T14:46:24;5.70;;;5.20;;
10910;SDS011;5508;49.150;11.030;2023-04-07T14:49:27;6.73;;;5.83;;
10910;SDS011;5508;49.150;11.030;2023-04-07T14:52:28;7.93;;;6.17;;
10910;SDS011;5508;49.150;11.030;2023-04-07T14:55:29;6.33;;;5.73;;
10910;SDS011;5508;49.150;11.030;2023-04-07T14:58:30;9.23;;;5.33;;
10910;SDS011;5508;49.150;11.030;2023-04-07T15:01:31;7.43;;;6.73;;
10910;SDS011;5508;49.150;11.030;2023-04-07T15:04:31;5.43;;;4.93;;
10910;SDS011;5508;49.150;11.030;2023-04-07T15:07:32;10.17;;;7.90;;
10910;SDS011;5508;49.150;11.030;2023-04-07T15:10:33;11.60;;;8.57;;
10910;SDS011;5508;49.150;11.030;2023-04-07T15:13:34;10.20;;;7.73;;
10910;SDS011;5508;49.150;11.030;2023-04-07T15:16:35;7.70;;;6.90;;
10910;SDS011;5508;49.150;11.030;2023-04-07T15:19:38;6.63;;;5.93;;
10910;SDS011;5508;49.150;11.030;2023-04-07T15:22:38;6.47;;;5.73;;
10910;SDS011;5508;49.150;11.030;2023-04-07T15:25:39;8.40;;;6.63;;
10910;SDS011;5508;49.150;11.030;2023-04-07T15:28:40;6.87;;;6.17;;
10910;SDS011;5508;49.150;11.030;2023-04-07T15:31:40;6.80;;;6.10;;
10910;SDS011;5508;49.150;11.030;2023-04-07T15:34:41;7.43;;;6.20;;
10910;SDS011;5508;49.150;11.030;2023-04-07T15:37:41;7.83;;;7.10;;
10910;SDS011;5508;49.150;11.030;2023-04-07T15:40:42;10.30;;;9.20;;
10910;SDS011;5508;49.150;11.030;2023-04-07T15:43:42;20.10;;;18.23;;
10910;SDS011;5508;49.150;11.030;2023-04-07T15:46:43;25.70;;;20.63;;
10910;SDS011;5508;49.150;11.030;2023-04-07T15:49:43;12.47;;;10.90;;
10910;SDS011;5508;49.150;11.030;2023-04-07T15:52:44;7.27;;;6.57;;
10910;SDS011;5508;49.150;11.030;2023-04-07T15:55:44;7.33;;;6.60;;
10910;SDS011;5508;49.150;11.030;2023-04-07T15:58:45;7.90;;;7.13;;
10910;SDS011;5508;49.150;11.030;2023-04-07T16:01:45;11.73;;;8.73;;
10910;SDS011;5508;49.150;11.030;2023-04-07T16:04:46;12.60;;;9.47;;
10910;SDS011;5508;49.150;11.030;2023-04-07T16:07:47;10.57;;;8.97;;
10910;SDS011;5508;49.150;11.030;2023-04-07T16:10:47;13.47;;;10.40;;
10910;SDS011;5508;49.150;11.030;2023-04-07T16:13:48;8.03;;;7.07;;
10910;SDS011;5508;49.150;11.030;2023-04-07T16:16:49;7.97;;;6.90;;
10910;SDS011;5508;49.150;11.030;2023-04-07T16:19:52;6.63;;;5.80;;
10910;SDS011;5508;49.150;11.030;2023-04-07T16:22:53;6.80;;;5.80;;
10910;SDS011;5508;49.150;11.030;2023-04-07T16:25:53;31.17;;;27.93;;
10910;SDS011;5508;49.150;11.030;2023-04-07T16:28:54;6.37;;;5.47;;
10910;SDS011;5508;49.150;11.030;2023-04-07T16:31:54;4.90;;;4.40;;
10910;SDS011;5508;49.150;11.030;2023-04-07T16:34:55;5.70;;;5.10;;
10910;SDS011;5508;49.150;11.030;2023-04-07T16:37:55;6.63;;;5.87;;
10910;SDS011;5508;49.150;11.030;2023-04-07T16:41:00;7.77;;;5.80;;
10910;SDS011;5508;49.150;11.030;2023-04-07T16:44:00;7.13;;;5.87;;
10910;SDS011;5508;49.150;11.030;2023-04-07T16:47:01;10.37;;;7.87;;
10910;SDS011;5508;49.150;11.030;2023-04-07T16:50:02;7.17;;;6.43;;
10910;SDS011;5508;49.150;11.030;2023-04-07T16:53:03;8.13;;;6.07;;
10910;SDS011;5508;49.150;11.030;2023-04-07T16:56:04;9.23;;;7.77;;
10910;SDS011;5508;49.150;11.030;2023-04-07T16:59:04;9.37;;;8.30;;
10910;SDS011;5508;49.150;11.030;2023-04-07T17:02:08;7.20;;;6.47;;
10910;SDS011;5508;49.150;11.030;2023-04-07T17:05:11;9.03;;;7.47;;
10910;SDS011;5508;49.150;11.030;2023-04-07T17:08:11;9.20;;;8.30;;
10910;SDS011;5508;49.150;11.030;2023-04-07T17:11:12;8.50;;;7.60;;
10910;SDS011;5508;49.150;11.030;2023-04-07T17:14:12;9.97;;;8.97;;
10910;SDS011;5508;49.150;11.030;2023-04-07T17:17:13;18.03;;;15.87;;
10910;SDS011;5508;49.150;11.030;2023-04-07T17:20:13;16.23;;;14.57;;
10910;SDS011;5508;49.150;11.030;2023-04-07T17:23:16;14.70;;;12.77;;
10910;SDS011;5508;49.150;11.030;2023-04-07T17:26:17;14.97;;;12.50;;
10910;SDS011;5508;49.150;11.030;2023-04-07T17:29:17;20.40;;;15.03;;
10910;SDS011;5508;49.150;11.030;2023-04-07T17:32:19;18.93;;;14.20;;
10910;SDS011;5508;49.150;11.030;2023-04-07T17:35:20;14.60;;;12.33;;
10910;SDS011;5508;49.150;11.030;2023-04-07T17:38:21;9.07;;;7.80;;
10910;SDS011;5508;49.150;11.030;2023-04-07T17:41:22;7.83;;;6.53;;
10910;SDS011;5508;49.150;11.030;2023-04-07T17:44:25;5.10;;;4.63;;
10910;SDS011;5508;49.150;11.030;2023-04-07T17:47:26;16.73;;;11.63;;
10910;SDS011;5508;49.150;11.030;2023-04-07T17:50:26;7.93;;;6.33;;
10910;SDS011;5508;49.150;11.030;2023-04-07T17:53:27;6.07;;;5.03;;
10910;SDS011;5508;49.150;11.030;2023-04-07T17:56:27;7.70;;;5.70;;
10910;SDS011;5508;49.150;11.030;2023-04-07T17:59:28;6.97;;;5.40;;
10910;SDS011;5508;49.150;11.030;2023-04-07T18:02:28;6.43;;;5.33;;
10910;SDS011;5508;49.150;11.030;2023-04-07T18:05:29;6.67;;;5.97;;
10910;SDS011;5508;49.150;11.030;2023-04-07T18:08:30;6.20;;;5.57;;
10910;SDS011;5508;49.150;11.030;2023-04-07T18:11:30;6.80;;;5.60;;
10910;SDS011;5508;49.150;11.030;2023-04-07T18:14:31;8.77;;;6.43;;
10910;SDS011;5508;49.150;11.030;2023-04-07T18:17:32;9.13;;;6.60;;
10910;SDS011;5508;49.150;11.030;2023-04-07T18:20:32;9.13;;;6.40;;